sensor_id;sensor_type;location;lat;lon;timestamp;P1;durP1;ratioP1;P2;durP2;ratioP2
61527;SDS011;47395;42.032;-8.634;2023-10-09T00:00:45;21.17;;;13.60;;
61527;SDS011;47395;42.032;-8.634;2023-10-09T00:02:55;25.80;;;14.37;;
61527;SDS011;47395;42.032;-8.634;2023-10-09T00:04:55;17.67;;;13.98;;
61527;SDS011;47395;42.032;-8.634;2023-10-09T00:06:57;16.83;;;13.27;;
61527;SDS011;47395;42.032;-8.634;2023-10-09T00:08:59;21.60;;;14.07;;
61527;SDS011;47395;42.032;-8.634;2023-10-09T00:11:12;21.17;;;13.35;;
61527;SDS011;47395;42.032;-8.634;2023-10-09T00:13:19;20.05;;;14.60;;
61527;SDS011;47395;42.032;-8.634;2023-10-09T00:15:32;23.15;;;14.77;;
61527;SDS011;47395;42.032;-8.634;2023-10-09T00:17:33;22.33;;;14.63;;
61527;SDS011;47395;42.032;-8.634;2023-10-09T00:19:34;21.48;;;14.80;;
61527;SDS011;47395;42.032;-8.634;2023-10-09T00:21:35;25.15;;;14.15;;
61527;SDS011;47395;42.032;-8.634;2023-10-09T00:23:39;18.40;;;14.40;;
61527;SDS011;47395;42.032;-8.634;2023-10-09T00:25:59;19.17;;;14.30;;
61527;SDS011;47395;42.032;-8.634;2023-10-09T00:28:10;15.55;;;13.50;;
61527;SDS011;47395;42.032;-8.634;2023-10-09T00:30:11;21.95;;;15.05;;
61527;SDS011;47395;42.032;-8.634;2023-10-09T00:32:18;20.08;;;14.52;;
61527;SDS011;47395;42.032;-8.634;2023-10-09T00:34:19;18.70;;;15.38;;
61527;SDS011;47395;42.032;-8.634;2023-10-09T00:36:21;21.67;;;15.05;;
61527;SDS011;47395;42.032;-8.634;2023-10-09T00:38:28;16.17;;;14.30;;
61527;SDS011;47395;42.032;-8.634;2023-10-09T00:40:34;16.10;;;14.05;;
61527;SDS011;47395;42.032;-8.634;2023-10-09T00:42:36;15.55;;;13.93;;
61527;SDS011;47395;42.032;-8.634;2023-10-09T00:44:39;21.15;;;14.57;;
61527;SDS011;47395;42.032;-8.634;2023-10-09T00:46:41;20.88;;;14.98;;
61527;SDS011;47395;42.032;-8.634;2023-10-09T00:48:48;19.92;;;13.95;;
61527;SDS011;47395;42.032;-8.634;2023-10-09T00:50:50;26.23;;;14.25;;
61527;SDS011;47395;42.032;-8.634;2023-10-09T00:52:55;20.25;;;14.43;;
61527;SDS011;47395;42.032;-8.634;2023-10-09T00:55:05;16.60;;;14.32;;
61527;SDS011;47395;42.032;-8.634;2023-10-09T00:57:14;21.88;;;13.90;;
61527;SDS011;47395;42.032;-8.634;2023-10-09T00:59:16;18.42;;;14.00;;
61527;SDS011;47395;42.032;-8.634;2023-10-09T01:01:20;17.73;;;14.00;;
61527;SDS011;47395;42.032;-8.634;2023-10-09T01:03:26;19.85;;;14.20;;
61527;SDS011;47395;42.032;-8.634;2023-10-09T01:05:28;21.25;;;14.43;;
61527;SDS011;47395;42.032;-8.634;2023-10-09T01:07:29;20.40;;;13.95;;
61527;SDS011;47395;42.032;-8.634;2023-10-09T01:09:32;17.60;;;13.57;;
61527;SDS011;47395;42.032;-8.634;2023-10-09T01:11:44;18.73;;;14.80;;
61527;SDS011;47395;42.032;-8.634;2023-10-09T01:13:50;20.98;;;14.68;;
61527;SDS011;47395;42.032;-8.634;2023-10-09T01:15:50;21.48;;;14.40;;
61527;SDS011;47395;42.032;-8.634;2023-10-09T01:17:52;20.20;;;14.27;;
61527;SDS011;47395;42.032;-8.634;2023-10-09T01:19:53;22.92;;;13.75;;
61527;SDS011;47395;42.032;-8.634;2023-10-09T01:21:57;18.08;;;13.73;;
61527;SDS011;47395;42.032;-8.634;2023-10-09T01:24:24;16.55;;;14.23;;
61527;SDS011;47395;42.032;-8.634;2023-10-09T01:26:31;15.93;;;13.55;;
61527;SDS011;47395;42.032;-8.634;2023-10-09T01:28:39;26.20;;;14.23;;
61527;SDS011;47395;42.032;-8.634;2023-10-09T01:30:41;22.42;;;13.85;;
61527;SDS011;47395;42.032;-8.634;2023-10-09T01:32:42;16.73;;;13.88;;
61527;SDS011;47395;42.032;-8.634;2023-10-09T01:34:46;16.27;;;13.32;;
61527;SDS011;47395;42.032;-8.634;2023-10-09T01:36:53;16.20;;;13.35;;
61527;SDS011;47395;42.032;-8.634;2023-10-09T01:39:00;20.20;;;13.95;;
61527;SDS011;47395;42.032;-8.634;2023-10-09T01:41:11;14.95;;;12.80;;
61527;SDS011;47395;42.032;-8.634;2023-10-09T01:43:16;18.38;;;14.30;;
61527;SDS011;47395;42.032;-8.634;2023-10-09T01:45:19;18.63;;;13.57;;
61527;SDS011;47395;42.032;-8.634;2023-10-09T01:47:28;17.92;;;13.25;;
61527;SDS011;47395;42.032;-8.634;2023-10-09T01:49:31;17.58;;;13.73;;
61527;SDS011;47395;42.032;-8.634;2023-10-09T01:51:33;14.50;;;12.98;;
61527;SDS011;47395;42.032;-8.634;2023-10-09T01:53:36;23.23;;;14.77;;
61527;SDS011;47395;42.032;-8.634;2023-10-09T01:55:38;15.88;;;12.73;;
61527;SDS011;47395;42.032;-8.634;2023-10-09T01:57:45;23.70;;;14.13;;
61527;SDS011;47395;42.032;-8.634;2023-10-09T01:59:46;20.42;;;14.40;;
61527;SDS011;47395;42.032;-8.634;2023-10-09T02:01:49;19.75;;;13.68;;
61527;SDS011;47395;42.032;-8.634;2023-10-09T02:03:55;18.25;;;13.80;;
61527;SDS011;47395;42.032;-8.634;2023-10-09T02:06:05;18.95;;;13.02;;
61527;SDS011;47395;42.032;-8.634;2023-10-09T02:08:18;18.77;;;12.95;;
61527;SDS011;47395;42.032;-8.634;2023-10-09T02:10:27;17.30;;;13.68;;
61527;SDS011;47395;42.032;-8.634;2023-10-09T02:12:33;16.00;;;13.77;;
61527;SDS011;47395;42.032;-8.634;2023-10-09T02:14:34;18.52;;;12.50;;
61527;SDS011;47395;42.032;-8.634;2023-10-09T02:16:41;25.10;;;12.95;;
61527;SDS011;47395;42.032;-8.634;2023-10-09T02:18:43;16.55;;;12.25;;
61527;SDS011;47395;42.032;-8.634;2023-10-09T02:21:03;18.48;;;11.95;;
61527;SDS011;47395;42.032;-8.634;2023-10-09T02:23:15;17.70;;;13.00;;
61527;SDS011;47395;42.032;-8.634;2023-10-09T02:25:24;22.10;;;12.07;;
61527;SDS011;47395;42.032;-8.634;2023-10-09T02:27:29;15.80;;;12.85;;
61527;SDS011;47395;42.032;-8.634;2023-10-09T02:29:46;17.65;;;12.45;;
61527;SDS011;47395;42.032;-8.634;2023-10-09T02:31:47;18.73;;;12.70;;
61527;SDS011;47395;42.032;-8.634;2023-10-09T02:33:51;16.92;;;13.32;;
61527;SDS011;47395;42.032;-8.634;2023-10-09T02:35:55;19.33;;;13.45;;
61527;SDS011;47395;42.032;-8.634;2023-10-09T02:37:59;16.08;;;13.07;;
61527;SDS011;47395;42.032;-8.634;2023-10-09T02:40:00;18.50;;;13.50;;
61527;SDS011;47395;42.032;-8.634;2023-10-09T02:42:08;17.38;;;13.20;;
61527;SDS011;47395;42.032;-8.634;2023-10-09T02:44:29;22.73;;;12.65;;
61527;SDS011;47395;42.032;-8.634;2023-10-09T02:46:39;18.63;;;13.77;;
61527;SDS011;47395;42.032;-8.634;2023-10-09T02:48:41;17.02;;;13.32;;
61527;SDS011;47395;42.032;-8.634;2023-10-09T02:50:53;17.35;;;13.73;;
61527;SDS011;47395;42.032;-8.634;2023-10-09T02:52:54;19.30;;;12.88;;
61527;SDS011;47395;42.032;-8.634;2023-10-09T02:55:01;19.27;;;12.95;;
61527;SDS011;47395;42.032;-8.634;2023-10-09T02:57:13;19.00;;;13.13;;
61527;SDS011;47395;42.032;-8.634;2023-10-09T02:59:24;17.83;;;12.80;;
61527;SDS011;47395;42.032;-8.634;2023-10-09T03:01:25;15.52;;;13.13;;
61527;SDS011;47395;42.032;-8.634;2023-10-09T03:03:25;21.27;;;14.02;;
61527;SDS011;47395;42.032;-8.634;2023-10-09T03:05:28;14.95;;;13.10;;
61527;SDS011;47395;42.032;-8.634;2023-10-09T03:07:29;19.23;;;13.02;;
61527;SDS011;47395;42.032;-8.634;2023-10-09T03:09:30;16.88;;;12.90;;
61527;SDS011;47395;42.032;-8.634;2023-10-09T03:11:33;20.50;;;12.88;;
61527;SDS011;47395;42.032;-8.634;2023-10-09T03:13:35;17.63;;;12.82;;
61527;SDS011;47395;42.032;-8.634;2023-10-09T03:15:38;17.63;;;12.60;;
61527;SDS011;47395;42.032;-8.634;2023-10-09T03:17:39;21.52;;;13.40;;
61527;SDS011;47395;42.032;-8.634;2023-10-09T03:19:43;17.38;;;13.20;;
61527;SDS011;47395;42.032;-8.634;2023-10-09T03:21:44;14.95;;;12.20;;
61527;SDS011;47395;42.032;-8.634;2023-10-09T03:23:47;21.98;;;12.20;;
61527;SDS011;47395;42.032;-8.634;2023-10-09T03:25:51;13.52;;;12.13;;
61527;SDS011;47395;42.032;-8.634;2023-10-09T03:27:52;19.20;;;12.40;;
61527;SDS011;47395;42.032;-8.634;2023-10-09T03:29:56;21.08;;;12.57;;
61527;SDS011;47395;42.032;-8.634;2023-10-09T03:31:57;19.90;;;13.18;;
61527;SDS011;47395;42.032;-8.634;2023-10-09T03:33:58;13.90;;;12.45;;
61527;SDS011;47395;42.032;-8.634;2023-10-09T03:35:59;18.45;;;12.95;;
61527;SDS011;47395;42.032;-8.634;2023-10-09T03:38:00;14.68;;;12.82;;
61527;SDS011;47395;42.032;-8.634;2023-10-09T03:40:11;16.95;;;12.43;;
61527;SDS011;47395;42.032;-8.634;2023-10-09T03:42:17;18.88;;;12.75;;
61527;SDS011;47395;42.032;-8.634;2023-10-09T03:44:22;21.05;;;13.00;;
61527;SDS011;47395;42.032;-8.634;2023-10-09T03:46:23;14.60;;;13.10;;
61527;SDS011;47395;42.032;-8.634;2023-10-09T03:48:33;19.70;;;12.65;;
61527;SDS011;47395;42.032;-8.634;2023-10-09T03:50:37;18.90;;;13.38;;
61527;SDS011;47395;42.032;-8.634;2023-10-09T03:52:38;16.02;;;12.02;;
61527;SDS011;47395;42.032;-8.634;2023-10-09T03:54:40;20.17;;;12.55;;
61527;SDS011;47395;42.032;-8.634;2023-10-09T03:56:44;20.75;;;12.52;;
61527;SDS011;47395;42.032;-8.634;2023-10-09T03:58:45;15.63;;;12.25;;
61527;SDS011;47395;42.032;-8.634;2023-10-09T04:00:48;17.33;;;13.35;;
61527;SDS011;47395;42.032;-8.634;2023-10-09T04:02:59;18.63;;;12.15;;
61527;SDS011;47395;42.032;-8.634;2023-10-09T04:05:26;14.77;;;13.20;;
61527;SDS011;47395;42.032;-8.634;2023-10-09T04:12:24;16.45;;;12.57;;
61527;SDS011;47395;42.032;-8.634;2023-10-09T04:14:34;21.00;;;13.23;;
61527;SDS011;47395;42.032;-8.634;2023-10-09T04:16:52;20.08;;;13.10;;
61527;SDS011;47395;42.032;-8.634;2023-10-09T04:19:09;17.67;;;12.38;;
61527;SDS011;47395;42.032;-8.634;2023-10-09T04:21:27;19.17;;;12.70;;
61527;SDS011;47395;42.032;-8.634;2023-10-09T04:26:09;16.92;;;13.05;;
61527;SDS011;47395;42.032;-8.634;2023-10-09T04:28:31;23.67;;;11.98;;
61527;SDS011;47395;42.032;-8.634;2023-10-09T04:31:03;18.80;;;12.75;;
61527;SDS011;47395;42.032;-8.634;2023-10-09T04:33:06;20.08;;;13.25;;
61527;SDS011;47395;42.032;-8.634;2023-10-09T04:35:12;20.45;;;12.40;;
61527;SDS011;47395;42.032;-8.634;2023-10-09T04:37:26;15.55;;;12.43;;
61527;SDS011;47395;42.032;-8.634;2023-10-09T04:39:39;19.90;;;12.80;;
61527;SDS011;47395;42.032;-8.634;2023-10-09T04:42:02;13.60;;;11.23;;
61527;SDS011;47395;42.032;-8.634;2023-10-09T04:44:42;18.00;;;12.43;;
61527;SDS011;47395;42.032;-8.634;2023-10-09T04:47:10;16.02;;;12.00;;
61527;SDS011;47395;42.032;-8.634;2023-10-09T04:49:25;14.80;;;11.80;;
61527;SDS011;47395;42.032;-8.634;2023-10-09T04:51:28;19.10;;;12.43;;
61527;SDS011;47395;42.032;-8.634;2023-10-09T04:53:35;23.27;;;13.23;;
61527;SDS011;47395;42.032;-8.634;2023-10-09T04:55:44;15.82;;;11.60;;
61527;SDS011;47395;42.032;-8.634;2023-10-09T04:57:54;13.25;;;11.02;;
61527;SDS011;47395;42.032;-8.634;2023-10-09T05:00:24;14.80;;;11.55;;
61527;SDS011;47395;42.032;-8.634;2023-10-09T05:02:27;13.15;;;11.80;;
61527;SDS011;47395;42.032;-8.634;2023-10-09T05:04:37;15.37;;;11.23;;
61527;SDS011;47395;42.032;-8.634;2023-10-09T05:06:44;20.63;;;12.30;;
61527;SDS011;47395;42.032;-8.634;2023-10-09T05:08:57;18.17;;;12.82;;
61527;SDS011;47395;42.032;-8.634;2023-10-09T05:11:08;19.25;;;11.40;;
61527;SDS011;47395;42.032;-8.634;2023-10-09T05:13:15;21.55;;;11.85;;
61527;SDS011;47395;42.032;-8.634;2023-10-09T05:15:27;13.15;;;11.75;;
61527;SDS011;47395;42.032;-8.634;2023-10-09T05:17:30;14.05;;;12.25;;
61527;SDS011;47395;42.032;-8.634;2023-10-09T05:19:34;20.20;;;12.90;;
61527;SDS011;47395;42.032;-8.634;2023-10-09T05:21:54;17.65;;;12.05;;
61527;SDS011;47395;42.032;-8.634;2023-10-09T05:24:00;13.32;;;11.23;;
61527;SDS011;47395;42.032;-8.634;2023-10-09T05:26:19;19.20;;;12.75;;
61527;SDS011;47395;42.032;-8.634;2023-10-09T05:28:49;18.00;;;12.45;;
61527;SDS011;47395;42.032;-8.634;2023-10-09T05:30:52;17.33;;;12.68;;
61527;SDS011;47395;42.032;-8.634;2023-10-09T05:33:18;21.40;;;12.10;;
61527;SDS011;47395;42.032;-8.634;2023-10-09T05:35:28;18.17;;;11.85;;
61527;SDS011;47395;42.032;-8.634;2023-10-09T05:37:41;15.40;;;12.07;;
61527;SDS011;47395;42.032;-8.634;2023-10-09T05:39:46;16.90;;;11.65;;
61527;SDS011;47395;42.032;-8.634;2023-10-09T05:42:10;13.18;;;11.55;;
61527;SDS011;47395;42.032;-8.634;2023-10-09T05:44:18;16.58;;;11.45;;
61527;SDS011;47395;42.032;-8.634;2023-10-09T05:46:38;19.98;;;11.77;;
61527;SDS011;47395;42.032;-8.634;2023-10-09T05:48:49;14.05;;;11.35;;
61527;SDS011;47395;42.032;-8.634;2023-10-09T05:50:56;19.13;;;11.80;;
61527;SDS011;47395;42.032;-8.634;2023-10-09T05:53:09;15.80;;;11.15;;
61527;SDS011;47395;42.032;-8.634;2023-10-09T05:55:30;16.05;;;11.55;;
61527;SDS011;47395;42.032;-8.634;2023-10-09T05:57:54;14.15;;;11.20;;
61527;SDS011;47395;42.032;-8.634;2023-10-09T06:00:16;13.32;;;11.27;;
61527;SDS011;47395;42.032;-8.634;2023-10-09T06:02:35;18.27;;;11.25;;
61527;SDS011;47395;42.032;-8.634;2023-10-09T06:05:05;12.55;;;10.52;;
61527;SDS011;47395;42.032;-8.634;2023-10-09T06:07:26;16.48;;;11.18;;
61527;SDS011;47395;42.032;-8.634;2023-10-09T06:09:46;12.63;;;11.07;;
61527;SDS011;47395;42.032;-8.634;2023-10-09T06:11:52;20.10;;;10.88;;
61527;SDS011;47395;42.032;-8.634;2023-10-09T06:13:53;12.25;;;10.95;;
61527;SDS011;47395;42.032;-8.634;2023-10-09T06:16:04;17.23;;;11.23;;
61527;SDS011;47395;42.032;-8.634;2023-10-09T06:18:31;16.25;;;10.18;;
61527;SDS011;47395;42.032;-8.634;2023-10-09T06:20:34;17.30;;;11.27;;
61527;SDS011;47395;42.032;-8.634;2023-10-09T06:23:01;16.42;;;10.90;;
61527;SDS011;47395;42.032;-8.634;2023-10-09T06:25:16;15.00;;;11.40;;
61527;SDS011;47395;42.032;-8.634;2023-10-09T06:27:18;14.18;;;10.38;;
61527;SDS011;47395;42.032;-8.634;2023-10-09T06:29:51;17.50;;;11.45;;
61527;SDS011;47395;42.032;-8.634;2023-10-09T06:32:12;13.70;;;11.05;;
61527;SDS011;47395;42.032;-8.634;2023-10-09T06:34:35;21.15;;;11.02;;
61527;SDS011;47395;42.032;-8.634;2023-10-09T06:36:36;11.30;;;10.30;;
61527;SDS011;47395;42.032;-8.634;2023-10-09T06:38:46;13.30;;;11.82;;
61527;SDS011;47395;42.032;-8.634;2023-10-09T06:41:12;20.33;;;11.57;;
61527;SDS011;47395;42.032;-8.634;2023-10-09T06:43:36;18.50;;;12.70;;
61527;SDS011;47395;42.032;-8.634;2023-10-09T06:45:55;15.20;;;11.23;;
61527;SDS011;47395;42.032;-8.634;2023-10-09T06:48:15;14.15;;;11.75;;
61527;SDS011;47395;42.032;-8.634;2023-10-09T06:50:34;19.40;;;11.20;;
61527;SDS011;47395;42.032;-8.634;2023-10-09T06:52:54;17.63;;;11.17;;
61527;SDS011;47395;42.032;-8.634;2023-10-09T06:55:38;14.70;;;10.60;;
61527;SDS011;47395;42.032;-8.634;2023-10-09T06:57:51;15.52;;;12.05;;
61527;SDS011;47395;42.032;-8.634;2023-10-09T06:59:56;18.40;;;13.88;;
61527;SDS011;47395;42.032;-8.634;2023-10-09T07:02:19;15.45;;;12.45;;
61527;SDS011;47395;42.032;-8.634;2023-10-09T07:04:27;20.10;;;12.02;;
61527;SDS011;47395;42.032;-8.634;2023-10-09T07:06:46;22.30;;;12.50;;
61527;SDS011;47395;42.032;-8.634;2023-10-09T07:08:51;16.77;;;11.95;;
61527;SDS011;47395;42.032;-8.634;2023-10-09T07:11:20;21.73;;;11.80;;
61527;SDS011;47395;42.032;-8.634;2023-10-09T07:13:22;17.33;;;11.52;;
61527;SDS011;47395;42.032;-8.634;2023-10-09T07:15:25;14.27;;;11.80;;
61527;SDS011;47395;42.032;-8.634;2023-10-09T07:17:46;21.30;;;11.63;;
61527;SDS011;47395;42.032;-8.634;2023-10-09T07:19:47;18.58;;;11.70;;
61527;SDS011;47395;42.032;-8.634;2023-10-09T07:22:12;23.38;;;11.60;;
61527;SDS011;47395;42.032;-8.634;2023-10-09T07:24:31;19.95;;;11.13;;
61527;SDS011;47395;42.032;-8.634;2023-10-09T07:26:43;16.95;;;11.30;;
61527;SDS011;47395;42.032;-8.634;2023-10-09T07:28:56;17.58;;;10.57;;
61527;SDS011;47395;42.032;-8.634;2023-10-09T07:31:18;18.33;;;10.50;;
61527;SDS011;47395;42.032;-8.634;2023-10-09T07:33:27;15.43;;;9.80;;
61527;SDS011;47395;42.032;-8.634;2023-10-09T07:35:51;16.33;;;9.70;;
61527;SDS011;47395;42.032;-8.634;2023-10-09T07:37:57;11.60;;;8.18;;
61527;SDS011;47395;42.032;-8.634;2023-10-09T07:39:59;14.82;;;8.88;;
61527;SDS011;47395;42.032;-8.634;2023-10-09T07:42:09;19.65;;;9.07;;
61527;SDS011;47395;42.032;-8.634;2023-10-09T07:44:21;9.80;;;7.32;;
61527;SDS011;47395;42.032;-8.634;2023-10-09T07:46:37;14.70;;;8.05;;
61527;SDS011;47395;42.032;-8.634;2023-10-09T07:49:16;12.40;;;7.55;;
61527;SDS011;47395;42.032;-8.634;2023-10-09T07:51:25;15.75;;;7.18;;
61527;SDS011;47395;42.032;-8.634;2023-10-09T07:53:34;10.82;;;6.80;;
61527;SDS011;47395;42.032;-8.634;2023-10-09T07:55:44;7.95;;;6.78;;
61527;SDS011;47395;42.032;-8.634;2023-10-09T08:00:35;12.32;;;6.80;;
61527;SDS011;47395;42.032;-8.634;2023-10-09T08:03:11;10.43;;;6.63;;
61527;SDS011;47395;42.032;-8.634;2023-10-09T08:05:27;9.82;;;6.47;;
61527;SDS011;47395;42.032;-8.634;2023-10-09T08:07:45;11.98;;;6.88;;
61527;SDS011;47395;42.032;-8.634;2023-10-09T08:10:12;7.45;;;6.13;;
61527;SDS011;47395;42.032;-8.634;2023-10-09T08:12:58;16.95;;;6.57;;
61527;SDS011;47395;42.032;-8.634;2023-10-09T08:15:06;14.55;;;6.20;;
61527;SDS011;47395;42.032;-8.634;2023-10-09T08:17:25;9.25;;;6.07;;
61527;SDS011;47395;42.032;-8.634;2023-10-09T08:19:30;13.30;;;6.15;;
61527;SDS011;47395;42.032;-8.634;2023-10-09T08:21:40;9.18;;;5.70;;
61527;SDS011;47395;42.032;-8.634;2023-10-09T08:26:36;8.00;;;5.82;;
61527;SDS011;47395;42.032;-8.634;2023-10-09T08:28:47;8.35;;;5.80;;
61527;SDS011;47395;42.032;-8.634;2023-10-09T08:30:53;14.27;;;6.50;;
61527;SDS011;47395;42.032;-8.634;2023-10-09T08:33:09;13.10;;;6.47;;
61527;SDS011;47395;42.032;-8.634;2023-10-09T08:35:41;8.98;;;5.43;;
61527;SDS011;47395;42.032;-8.634;2023-10-09T08:37:50;8.20;;;6.00;;
61527;SDS011;47395;42.032;-8.634;2023-10-09T08:39:53;9.10;;;6.50;;
61527;SDS011;47395;42.032;-8.634;2023-10-09T08:41:59;10.43;;;6.13;;
61527;SDS011;47395;42.032;-8.634;2023-10-09T08:44:02;13.55;;;5.95;;
61527;SDS011;47395;42.032;-8.634;2023-10-09T08:46:04;8.63;;;5.88;;
61527;SDS011;47395;42.032;-8.634;2023-10-09T08:48:08;14.60;;;5.80;;
61527;SDS011;47395;42.032;-8.634;2023-10-09T08:50:15;8.70;;;5.88;;
61527;SDS011;47395;42.032;-8.634;2023-10-09T08:52:20;17.50;;;6.43;;
61527;SDS011;47395;42.032;-8.634;2023-10-09T08:54:23;10.43;;;5.10;;
61527;SDS011;47395;42.032;-8.634;2023-10-09T08:56:24;6.68;;;5.60;;
61527;SDS011;47395;42.032;-8.634;2023-10-09T08:58:26;12.02;;;5.50;;
61527;SDS011;47395;42.032;-8.634;2023-10-09T09:03:39;8.30;;;5.38;;
61527;SDS011;47395;42.032;-8.634;2023-10-09T09:05:47;13.68;;;5.97;;
61527;SDS011;47395;42.032;-8.634;2023-10-09T09:08:11;10.63;;;5.40;;
61527;SDS011;47395;42.032;-8.634;2023-10-09T09:10:29;15.55;;;5.47;;
61527;SDS011;47395;42.032;-8.634;2023-10-09T09:12:38;17.63;;;5.55;;
61527;SDS011;47395;42.032;-8.634;2023-10-09T09:14:40;9.27;;;5.10;;
61527;SDS011;47395;42.032;-8.634;2023-10-09T09:16:43;8.13;;;5.57;;
61527;SDS011;47395;42.032;-8.634;2023-10-09T09:18:52;7.47;;;5.30;;
61527;SDS011;47395;42.032;-8.634;2023-10-09T09:21:16;6.07;;;5.05;;
61527;SDS011;47395;42.032;-8.634;2023-10-09T09:23:24;8.15;;;4.88;;
61527;SDS011;47395;42.032;-8.634;2023-10-09T09:25:39;14.95;;;5.15;;
61527;SDS011;47395;42.032;-8.634;2023-10-09T09:27:59;6.32;;;4.88;;
61527;SDS011;47395;42.032;-8.634;2023-10-09T09:30:21;9.80;;;5.35;;
61527;SDS011;47395;42.032;-8.634;2023-10-09T09:32:28;15.95;;;4.82;;
61527;SDS011;47395;42.032;-8.634;2023-10-09T09:34:46;15.57;;;6.00;;
61527;SDS011;47395;42.032;-8.634;2023-10-09T09:36:56;20.52;;;5.13;;
61527;SDS011;47395;42.032;-8.634;2023-10-09T09:39:01;14.63;;;5.10;;
61527;SDS011;47395;42.032;-8.634;2023-10-09T09:41:07;21.90;;;5.30;;
61527;SDS011;47395;42.032;-8.634;2023-10-09T09:43:11;11.32;;;5.82;;
61527;SDS011;47395;42.032;-8.634;2023-10-09T09:45:23;13.00;;;5.10;;
61527;SDS011;47395;42.032;-8.634;2023-10-09T09:47:26;10.32;;;4.50;;
61527;SDS011;47395;42.032;-8.634;2023-10-09T09:49:27;7.15;;;5.20;;
61527;SDS011;47395;42.032;-8.634;2023-10-09T09:51:32;8.70;;;4.68;;
61527;SDS011;47395;42.032;-8.634;2023-10-09T09:53:38;12.20;;;5.07;;
61527;SDS011;47395;42.032;-8.634;2023-10-09T09:55:42;8.70;;;4.80;;
61527;SDS011;47395;42.032;-8.634;2023-10-09T09:57:59;6.00;;;4.75;;
61527;SDS011;47395;42.032;-8.634;2023-10-09T10:00:04;8.70;;;4.95;;
61527;SDS011;47395;42.032;-8.634;2023-10-09T10:02:29;8.18;;;4.85;;
61527;SDS011;47395;42.032;-8.634;2023-10-09T10:04:35;15.23;;;4.95;;
61527;SDS011;47395;42.032;-8.634;2023-10-09T10:06:50;7.50;;;4.70;;
61527;SDS011;47395;42.032;-8.634;2023-10-09T10:08:56;10.35;;;4.95;;
61527;SDS011;47395;42.032;-8.634;2023-10-09T10:10:58;9.70;;;5.05;;
61527;SDS011;47395;42.032;-8.634;2023-10-09T10:13:14;6.82;;;5.07;;
61527;SDS011;47395;42.032;-8.634;2023-10-09T10:15:25;8.57;;;5.43;;
61527;SDS011;47395;42.032;-8.634;2023-10-09T10:18:07;8.30;;;4.38;;
61527;SDS011;47395;42.032;-8.634;2023-10-09T10:20:08;10.13;;;4.82;;
61527;SDS011;47395;42.032;-8.634;2023-10-09T10:22:36;12.13;;;5.10;;
61527;SDS011;47395;42.032;-8.634;2023-10-09T10:24:47;17.08;;;5.07;;
61527;SDS011;47395;42.032;-8.634;2023-10-09T10:35:19;7.45;;;4.60;;
61527;SDS011;47395;42.032;-8.634;2023-10-09T10:37:38;8.50;;;4.95;;
61527;SDS011;47395;42.032;-8.634;2023-10-09T10:39:59;6.93;;;4.57;;
61527;SDS011;47395;42.032;-8.634;2023-10-09T10:42:01;7.78;;;4.18;;
61527;SDS011;47395;42.032;-8.634;2023-10-09T10:44:06;9.98;;;4.50;;
61527;SDS011;47395;42.032;-8.634;2023-10-09T10:46:25;10.15;;;4.72;;
61527;SDS011;47395;42.032;-8.634;2023-10-09T10:48:38;12.00;;;4.57;;
61527;SDS011;47395;42.032;-8.634;2023-10-09T10:50:47;6.20;;;4.30;;
61527;SDS011;47395;42.032;-8.634;2023-10-09T10:53:14;8.80;;;4.78;;
61527;SDS011;47395;42.032;-8.634;2023-10-09T10:55:17;8.02;;;4.47;;
61527;SDS011;47395;42.032;-8.634;2023-10-09T10:57:35;8.07;;;4.18;;
61527;SDS011;47395;42.032;-8.634;2023-10-09T11:00:01;14.75;;;4.10;;
61527;SDS011;47395;42.032;-8.634;2023-10-09T11:02:20;11.25;;;4.05;;
61527;SDS011;47395;42.032;-8.634;2023-10-09T11:04:28;8.18;;;4.22;;
61527;SDS011;47395;42.032;-8.634;2023-10-09T11:06:54;8.13;;;4.90;;
61527;SDS011;47395;42.032;-8.634;2023-10-09T11:12:22;9.52;;;4.47;;
61527;SDS011;47395;42.032;-8.634;2023-10-09T11:14:47;11.13;;;4.47;;
61527;SDS011;47395;42.032;-8.634;2023-10-09T11:17:14;10.23;;;4.57;;
61527;SDS011;47395;42.032;-8.634;2023-10-09T11:19:25;5.68;;;4.43;;
61527;SDS011;47395;42.032;-8.634;2023-10-09T11:21:33;9.68;;;4.18;;
61527;SDS011;47395;42.032;-8.634;2023-10-09T11:23:46;13.88;;;4.18;;
61527;SDS011;47395;42.032;-8.634;2023-10-09T11:26:14;5.43;;;4.45;;
61527;SDS011;47395;42.032;-8.634;2023-10-09T11:28:32;8.70;;;4.07;;
61527;SDS011;47395;42.032;-8.634;2023-10-09T11:30:53;7.95;;;4.85;;
61527;SDS011;47395;42.032;-8.634;2023-10-09T11:33:08;6.88;;;4.00;;
61527;SDS011;47395;42.032;-8.634;2023-10-09T11:35:16;12.20;;;4.00;;
61527;SDS011;47395;42.032;-8.634;2023-10-09T11:37:27;7.43;;;3.72;;
61527;SDS011;47395;42.032;-8.634;2023-10-09T11:39:51;5.07;;;3.53;;
61527;SDS011;47395;42.032;-8.634;2023-10-09T11:41:59;6.47;;;4.00;;
61527;SDS011;47395;42.032;-8.634;2023-10-09T11:44:09;4.90;;;3.58;;
61527;SDS011;47395;42.032;-8.634;2023-10-09T11:46:35;4.47;;;3.67;;
61527;SDS011;47395;42.032;-8.634;2023-10-09T11:48:40;12.60;;;4.38;;
61527;SDS011;47395;42.032;-8.634;2023-10-09T11:51:11;5.53;;;4.13;;
61527;SDS011;47395;42.032;-8.634;2023-10-09T11:53:20;4.22;;;3.40;;
61527;SDS011;47395;42.032;-8.634;2023-10-09T11:55:27;6.55;;;3.45;;
61527;SDS011;47395;42.032;-8.634;2023-10-09T11:57:36;6.78;;;3.45;;
61527;SDS011;47395;42.032;-8.634;2023-10-09T11:59:38;4.28;;;3.47;;
61527;SDS011;47395;42.032;-8.634;2023-10-09T12:01:45;3.85;;;3.30;;
61527;SDS011;47395;42.032;-8.634;2023-10-09T12:03:53;7.43;;;3.72;;
61527;SDS011;47395;42.032;-8.634;2023-10-09T12:05:55;4.88;;;3.50;;
61527;SDS011;47395;42.032;-8.634;2023-10-09T12:08:04;7.68;;;3.60;;
61527;SDS011;47395;42.032;-8.634;2023-10-09T12:10:09;6.55;;;3.70;;
61527;SDS011;47395;42.032;-8.634;2023-10-09T12:12:13;4.50;;;3.60;;
61527;SDS011;47395;42.032;-8.634;2023-10-09T12:14:17;3.47;;;3.17;;
61527;SDS011;47395;42.032;-8.634;2023-10-09T12:16:24;9.35;;;3.63;;
61527;SDS011;47395;42.032;-8.634;2023-10-09T12:18:33;4.78;;;3.45;;
61527;SDS011;47395;42.032;-8.634;2023-10-09T12:20:38;8.48;;;3.42;;
61527;SDS011;47395;42.032;-8.634;2023-10-09T12:22:39;7.72;;;3.60;;
61527;SDS011;47395;42.032;-8.634;2023-10-09T12:24:41;9.70;;;3.40;;
61527;SDS011;47395;42.032;-8.634;2023-10-09T12:26:44;5.60;;;3.60;;
61527;SDS011;47395;42.032;-8.634;2023-10-09T12:28:46;9.35;;;3.80;;
61527;SDS011;47395;42.032;-8.634;2023-10-09T12:30:51;7.60;;;3.47;;
61527;SDS011;47395;42.032;-8.634;2023-10-09T12:32:53;12.50;;;3.30;;
61527;SDS011;47395;42.032;-8.634;2023-10-09T12:34:55;8.27;;;3.83;;
61527;SDS011;47395;42.032;-8.634;2023-10-09T12:36:57;9.05;;;3.80;;
61527;SDS011;47395;42.032;-8.634;2023-10-09T12:39:02;20.55;;;4.15;;
61527;SDS011;47395;42.032;-8.634;2023-10-09T12:41:07;8.95;;;3.83;;
61527;SDS011;47395;42.032;-8.634;2023-10-09T12:43:34;15.00;;;3.70;;
61527;SDS011;47395;42.032;-8.634;2023-10-09T12:45:38;4.68;;;3.05;;
61527;SDS011;47395;42.032;-8.634;2023-10-09T12:47:39;9.30;;;3.58;;
61527;SDS011;47395;42.032;-8.634;2023-10-09T12:49:42;5.63;;;3.30;;
61527;SDS011;47395;42.032;-8.634;2023-10-09T12:51:45;6.40;;;3.60;;
61527;SDS011;47395;42.032;-8.634;2023-10-09T12:53:47;6.32;;;3.70;;
61527;SDS011;47395;42.032;-8.634;2023-10-09T12:55:57;6.63;;;3.42;;
61527;SDS011;47395;42.032;-8.634;2023-10-09T12:58:01;7.53;;;3.45;;
61527;SDS011;47395;42.032;-8.634;2023-10-09T13:00:10;6.30;;;3.25;;
61527;SDS011;47395;42.032;-8.634;2023-10-09T13:02:13;7.93;;;3.30;;
61527;SDS011;47395;42.032;-8.634;2023-10-09T13:04:28;7.43;;;2.97;;
61527;SDS011;47395;42.032;-8.634;2023-10-09T13:06:31;11.63;;;3.80;;